sensor_id;sensor_type;location;lat;lon;timestamp;P1;durP1;ratioP1;P2;durP2;ratioP2
9771;SDS011;4925;52.588;13.370;2023-02-20T00:01:26;3.87;;;1.87;;
9771;SDS011;4925;52.588;13.370;2023-02-20T00:03:53;5.00;;;2.37;;
9771;SDS011;4925;52.588;13.370;2023-02-20T00:06:18;6.17;;;2.30;;
9771;SDS011;4925;52.588;13.370;2023-02-20T00:08:44;6.70;;;2.90;;
9771;SDS011;4925;52.588;13.370;2023-02-20T00:11:10;4.80;;;2.33;;
9771;SDS011;4925;52.588;13.370;2023-02-20T00:13:36;3.47;;;2.00;;
9771;SDS011;4925;52.588;13.370;2023-02-20T00:16:02;2.60;;;2.33;;
9771;SDS011;4925;52.588;13.370;2023-02-20T00:18:28;6.57;;;2.60;;
9771;SDS011;4925;52.588;13.370;2023-02-20T00:20:54;3.67;;;2.73;;
9771;SDS011;4925;52.588;13.370;2023-02-20T00:23:19;4.27;;;2.83;;
9771;SDS011;4925;52.588;13.370;2023-02-20T00:25:45;4.57;;;3.10;;
9771;SDS011;4925;52.588;13.370;2023-02-20T00:28:11;9.33;;;3.40;;
9771;SDS011;4925;52.588;13.370;2023-02-20T00:30:38;3.77;;;2.60;;
9771;SDS011;4925;52.588;13.370;2023-02-20T00:33:03;4.40;;;2.70;;
9771;SDS011;4925;52.588;13.370;2023-02-20T00:35:29;7.03;;;2.80;;
9771;SDS011;4925;52.588;13.370;2023-02-20T00:37:55;7.90;;;3.40;;
9771;SDS011;4925;52.588;13.370;2023-02-20T00:40:22;6.17;;;3.17;;
9771;SDS011;4925;52.588;13.370;2023-02-20T00:42:49;3.67;;;3.10;;
9771;SDS011;4925;52.588;13.370;2023-02-20T00:45:15;4.33;;;3.00;;
9771;SDS011;4925;52.588;13.370;2023-02-20T00:47:41;3.63;;;2.93;;
9771;SDS011;4925;52.588;13.370;2023-02-20T00:50:08;4.00;;;3.20;;
9771;SDS011;4925;52.588;13.370;2023-02-20T00:52:34;6.50;;;2.90;;
9771;SDS011;4925;52.588;13.370;2023-02-20T00:55:00;6.37;;;3.13;;
9771;SDS011;4925;52.588;13.370;2023-02-20T00:57:26;7.03;;;3.67;;
9771;SDS011;4925;52.588;13.370;2023-02-20T00:59:52;13.17;;;3.93;;
9771;SDS011;4925;52.588;13.370;2023-02-20T01:02:18;5.80;;;3.50;;
9771;SDS011;4925;52.588;13.370;2023-02-20T01:04:43;4.97;;;3.20;;
9771;SDS011;4925;52.588;13.370;2023-02-20T01:07:10;6.57;;;3.30;;
9771;SDS011;4925;52.588;13.370;2023-02-20T01:09:36;4.87;;;3.33;;
9771;SDS011;4925;52.588;13.370;2023-02-20T01:12:01;5.40;;;3.50;;
9771;SDS011;4925;52.588;13.370;2023-02-20T01:14:27;6.43;;;3.67;;
9771;SDS011;4925;52.588;13.370;2023-02-20T01:16:53;5.53;;;4.03;;
9771;SDS011;4925;52.588;13.370;2023-02-20T01:19:19;6.60;;;3.30;;
9771;SDS011;4925;52.588;13.370;2023-02-20T01:21:46;5.67;;;3.63;;
9771;SDS011;4925;52.588;13.370;2023-02-20T01:24:13;8.10;;;4.20;;
9771;SDS011;4925;52.588;13.370;2023-02-20T01:26:43;6.90;;;3.70;;
9771;SDS011;4925;52.588;13.370;2023-02-20T01:29:09;9.20;;;4.53;;
9771;SDS011;4925;52.588;13.370;2023-02-20T01:31:35;9.37;;;3.63;;
9771;SDS011;4925;52.588;13.370;2023-02-20T01:34:01;6.80;;;4.00;;
9771;SDS011;4925;52.588;13.370;2023-02-20T01:36:27;6.67;;;3.80;;
9771;SDS011;4925;52.588;13.370;2023-02-20T01:38:53;6.70;;;4.00;;
9771;SDS011;4925;52.588;13.370;2023-02-20T01:41:19;6.67;;;3.77;;
9771;SDS011;4925;52.588;13.370;2023-02-20T01:43:45;4.53;;;3.67;;
9771;SDS011;4925;52.588;13.370;2023-02-20T01:49:04;6.53;;;3.80;;
9771;SDS011;4925;52.588;13.370;2023-02-20T01:51:36;7.23;;;4.13;;
9771;SDS011;4925;52.588;13.370;2023-02-20T01:54:14;5.80;;;3.97;;
9771;SDS011;4925;52.588;13.370;2023-02-20T01:56:42;6.20;;;4.10;;
9771;SDS011;4925;52.588;13.370;2023-02-20T01:59:11;6.67;;;4.20;;
9771;SDS011;4925;52.588;13.370;2023-02-20T02:01:38;7.63;;;4.00;;
9771;SDS011;4925;52.588;13.370;2023-02-20T02:04:05;7.27;;;4.60;;
9771;SDS011;4925;52.588;13.370;2023-02-20T02:06:33;8.53;;;4.17;;
9771;SDS011;4925;52.588;13.370;2023-02-20T02:09:06;6.33;;;3.57;;
9771;SDS011;4925;52.588;13.370;2023-02-20T02:11:41;7.10;;;4.20;;
9771;SDS011;4925;52.588;13.370;2023-02-20T02:14:07;4.90;;;3.70;;
9771;SDS011;4925;52.588;13.370;2023-02-20T02:41:05;5.27;;;3.60;;
9771;SDS011;4925;52.588;13.370;2023-02-20T02:43:52;6.47;;;3.77;;
9771;SDS011;4925;52.588;13.370;2023-02-20T02:46:29;6.07;;;3.80;;
9771;SDS011;4925;52.588;13.370;2023-02-20T02:51:39;5.67;;;4.17;;
9771;SDS011;4925;52.588;13.370;2023-02-20T02:56:48;5.60;;;3.93;;
9771;SDS011;4925;52.588;13.370;2023-02-20T02:59:16;5.67;;;3.80;;
9771;SDS011;4925;52.588;13.370;2023-02-20T03:01:54;5.50;;;3.77;;
9771;SDS011;4925;52.588;13.370;2023-02-20T03:04:23;5.33;;;3.73;;
9771;SDS011;4925;52.588;13.370;2023-02-20T03:06:55;4.13;;;3.50;;
9771;SDS011;4925;52.588;13.370;2023-02-20T03:09:26;6.87;;;4.70;;
9771;SDS011;4925;52.588;13.370;2023-02-20T03:11:54;8.93;;;4.37;;
9771;SDS011;4925;52.588;13.370;2023-02-20T03:14:27;6.60;;;4.43;;
9771;SDS011;4925;52.588;13.370;2023-02-20T03:20:01;7.07;;;3.87;;
9771;SDS011;4925;52.588;13.370;2023-02-20T03:22:40;8.60;;;4.30;;
9771;SDS011;4925;52.588;13.370;2023-02-20T03:25:11;3.90;;;3.50;;
9771;SDS011;4925;52.588;13.370;2023-02-20T03:27:59;6.93;;;4.23;;
9771;SDS011;4925;52.588;13.370;2023-02-20T03:30:30;6.07;;;4.30;;
9771;SDS011;4925;52.588;13.370;2023-02-20T03:33:23;5.90;;;4.53;;
9771;SDS011;4925;52.588;13.370;2023-02-20T03:36:25;6.27;;;4.27;;
9771;SDS011;4925;52.588;13.370;2023-02-20T03:39:17;7.40;;;4.73;;
9771;SDS011;4925;52.588;13.370;2023-02-20T03:42:05;7.27;;;4.90;;
9771;SDS011;4925;52.588;13.370;2023-02-20T03:44:53;6.93;;;4.50;;
9771;SDS011;4925;52.588;13.370;2023-02-20T03:47:21;5.23;;;4.33;;
9771;SDS011;4925;52.588;13.370;2023-02-20T03:49:50;7.10;;;5.20;;
9771;SDS011;4925;52.588;13.370;2023-02-20T03:52:18;8.10;;;4.67;;
9771;SDS011;4925;52.588;13.370;2023-02-20T03:54:45;7.17;;;4.70;;
9771;SDS011;4925;52.588;13.370;2023-02-20T03:57:15;7.97;;;5.13;;
9771;SDS011;4925;52.588;13.370;2023-02-20T03:59:49;6.07;;;4.77;;
9771;SDS011;4925;52.588;13.370;2023-02-20T04:02:43;7.40;;;5.60;;
9771;SDS011;4925;52.588;13.370;2023-02-20T04:05:12;8.77;;;4.53;;
9771;SDS011;4925;52.588;13.370;2023-02-20T04:07:51;8.90;;;5.63;;
9771;SDS011;4925;52.588;13.370;2023-02-20T04:10:42;6.30;;;4.77;;
9771;SDS011;4925;52.588;13.370;2023-02-20T04:13:15;7.37;;;5.50;;
9771;SDS011;4925;52.588;13.370;2023-02-20T04:15:42;7.40;;;4.67;;
9771;SDS011;4925;52.588;13.370;2023-02-20T04:18:10;7.93;;;5.53;;
9771;SDS011;4925;52.588;13.370;2023-02-20T04:20:38;10.50;;;5.60;;
9771;SDS011;4925;52.588;13.370;2023-02-20T04:23:08;7.67;;;5.10;;
9771;SDS011;4925;52.588;13.370;2023-02-20T04:25:56;9.40;;;5.50;;
9771;SDS011;4925;52.588;13.370;2023-02-20T04:28:25;8.67;;;5.80;;
9771;SDS011;4925;52.588;13.370;2023-02-20T04:30:51;6.07;;;5.13;;
9771;SDS011;4925;52.588;13.370;2023-02-20T04:33:18;9.13;;;5.90;;
9771;SDS011;4925;52.588;13.370;2023-02-20T04:35:44;7.87;;;5.43;;
9771;SDS011;4925;52.588;13.370;2023-02-20T04:38:10;8.03;;;5.60;;
9771;SDS011;4925;52.588;13.370;2023-02-20T04:40:36;7.13;;;5.73;;
9771;SDS011;4925;52.588;13.370;2023-02-20T04:43:02;7.90;;;5.03;;
9771;SDS011;4925;52.588;13.370;2023-02-20T04:45:28;7.53;;;5.50;;
9771;SDS011;4925;52.588;13.370;2023-02-20T04:47:54;6.73;;;5.03;;
9771;SDS011;4925;52.588;13.370;2023-02-20T04:50:21;7.60;;;5.63;;
9771;SDS011;4925;52.588;13.370;2023-02-20T04:52:47;7.57;;;5.43;;
9771;SDS011;4925;52.588;13.370;2023-02-20T04:55:13;6.53;;;5.40;;
9771;SDS011;4925;52.588;13.370;2023-02-20T04:57:39;8.03;;;5.70;;
9771;SDS011;4925;52.588;13.370;2023-02-20T05:00:05;7.67;;;5.87;;
9771;SDS011;4925;52.588;13.370;2023-02-20T05:02:32;10.03;;;6.03;;
9771;SDS011;4925;52.588;13.370;2023-02-20T05:04:58;8.60;;;5.57;;
9771;SDS011;4925;52.588;13.370;2023-02-20T05:07:24;8.23;;;5.50;;
9771;SDS011;4925;52.588;13.370;2023-02-20T05:09:50;7.03;;;4.50;;
9771;SDS011;4925;52.588;13.370;2023-02-20T05:12:15;9.30;;;5.80;;
9771;SDS011;4925;52.588;13.370;2023-02-20T05:14:41;7.50;;;5.53;;
9771;SDS011;4925;52.588;13.370;2023-02-20T05:17:07;9.47;;;5.37;;
9771;SDS011;4925;52.588;13.370;2023-02-20T05:19:32;7.17;;;5.70;;
9771;SDS011;4925;52.588;13.370;2023-02-20T05:21:58;8.87;;;5.37;;
9771;SDS011;4925;52.588;13.370;2023-02-20T05:24:42;8.77;;;5.90;;
9771;SDS011;4925;52.588;13.370;2023-02-20T05:27:09;8.63;;;5.87;;
9771;SDS011;4925;52.588;13.370;2023-02-20T05:29:35;8.70;;;5.97;;
9771;SDS011;4925;52.588;13.370;2023-02-20T05:32:01;7.20;;;5.70;;
9771;SDS011;4925;52.588;13.370;2023-02-20T05:34:27;7.67;;;5.47;;
9771;SDS011;4925;52.588;13.370;2023-02-20T05:36:53;9.43;;;6.33;;
9771;SDS011;4925;52.588;13.370;2023-02-20T05:39:19;11.13;;;5.90;;
9771;SDS011;4925;52.588;13.370;2023-02-20T05:41:44;7.27;;;5.77;;
9771;SDS011;4925;52.588;13.370;2023-02-20T05:44:10;9.03;;;6.43;;
9771;SDS011;4925;52.588;13.370;2023-02-20T05:46:41;8.83;;;6.63;;
9771;SDS011;4925;52.588;13.370;2023-02-20T05:49:07;8.27;;;6.37;;
9771;SDS011;4925;52.588;13.370;2023-02-20T05:51:34;9.07;;;6.00;;
9771;SDS011;4925;52.588;13.370;2023-02-20T05:54:00;7.87;;;6.00;;
9771;SDS011;4925;52.588;13.370;2023-02-20T05:56:26;9.07;;;5.43;;
9771;SDS011;4925;52.588;13.370;2023-02-20T05:58:54;10.80;;;6.30;;
9771;SDS011;4925;52.588;13.370;2023-02-20T06:01:27;13.93;;;8.07;;
9771;SDS011;4925;52.588;13.370;2023-02-20T06:03:54;7.67;;;6.03;;
9771;SDS011;4925;52.588;13.370;2023-02-20T06:06:20;7.73;;;6.57;;
9771;SDS011;4925;52.588;13.370;2023-02-20T06:08:46;8.87;;;6.97;;
9771;SDS011;4925;52.588;13.370;2023-02-20T06:11:13;8.07;;;6.20;;
9771;SDS011;4925;52.588;13.370;2023-02-20T06:13:40;7.33;;;6.23;;
9771;SDS011;4925;52.588;13.370;2023-02-20T06:16:08;7.10;;;5.60;;
9771;SDS011;4925;52.588;13.370;2023-02-20T06:18:37;13.30;;;8.40;;
9771;SDS011;4925;52.588;13.370;2023-02-20T06:21:10;8.50;;;5.73;;
9771;SDS011;4925;52.588;13.370;2023-02-20T06:23:36;8.07;;;6.47;;
9771;SDS011;4925;52.588;13.370;2023-02-20T06:26:03;7.70;;;6.37;;
9771;SDS011;4925;52.588;13.370;2023-02-20T06:28:30;7.37;;;5.73;;
9771;SDS011;4925;52.588;13.370;2023-02-20T06:30:56;7.87;;;5.90;;
9771;SDS011;4925;52.588;13.370;2023-02-20T06:33:22;7.97;;;6.07;;
9771;SDS011;4925;52.588;13.370;2023-02-20T06:35:47;7.20;;;6.00;;
9771;SDS011;4925;52.588;13.370;2023-02-20T06:38:13;7.47;;;5.67;;
9771;SDS011;4925;52.588;13.370;2023-02-20T06:40:39;8.27;;;6.30;;
9771;SDS011;4925;52.588;13.370;2023-02-20T06:43:05;8.43;;;6.23;;
9771;SDS011;4925;52.588;13.370;2023-02-20T06:45:30;8.10;;;6.20;;
9771;SDS011;4925;52.588;13.370;2023-02-20T06:47:56;9.30;;;6.63;;
9771;SDS011;4925;52.588;13.370;2023-02-20T06:50:22;10.57;;;7.70;;
9771;SDS011;4925;52.588;13.370;2023-02-20T06:52:49;8.40;;;6.70;;
9771;SDS011;4925;52.588;13.370;2023-02-20T06:55:14;8.53;;;6.63;;
9771;SDS011;4925;52.588;13.370;2023-02-20T06:57:40;7.97;;;6.57;;
9771;SDS011;4925;52.588;13.370;2023-02-20T07:00:06;8.17;;;6.53;;
9771;SDS011;4925;52.588;13.370;2023-02-20T07:02:32;9.30;;;7.50;;
9771;SDS011;4925;52.588;13.370;2023-02-20T07:05:00;9.90;;;7.63;;
9771;SDS011;4925;52.588;13.370;2023-02-20T07:07:27;8.93;;;7.20;;
9771;SDS011;4925;52.588;13.370;2023-02-20T07:09:53;10.63;;;8.00;;
9771;SDS011;4925;52.588;13.370;2023-02-20T07:12:18;9.40;;;7.87;;
9771;SDS011;4925;52.588;13.370;2023-02-20T07:14:44;10.50;;;8.03;;
9771;SDS011;4925;52.588;13.370;2023-02-20T07:17:10;13.63;;;9.10;;
9771;SDS011;4925;52.588;13.370;2023-02-20T07:19:35;11.23;;;8.27;;
9771;SDS011;4925;52.588;13.370;2023-02-20T07:22:01;11.23;;;8.17;;
9771;SDS011;4925;52.588;13.370;2023-02-20T07:24:27;9.57;;;8.00;;
9771;SDS011;4925;52.588;13.370;2023-02-20T07:26:52;10.07;;;7.97;;
9771;SDS011;4925;52.588;13.370;2023-02-20T07:29:18;11.50;;;9.43;;
9771;SDS011;4925;52.588;13.370;2023-02-20T07:31:44;11.93;;;8.27;;
9771;SDS011;4925;52.588;13.370;2023-02-20T07:34:10;10.53;;;9.03;;
9771;SDS011;4925;52.588;13.370;2023-02-20T07:36:36;10.17;;;8.67;;
9771;SDS011;4925;52.588;13.370;2023-02-20T07:39:02;12.40;;;9.03;;
9771;SDS011;4925;52.588;13.370;2023-02-20T07:41:31;10.70;;;8.43;;
9771;SDS011;4925;52.588;13.370;2023-02-20T07:43:58;10.30;;;7.80;;
9771;SDS011;4925;52.588;13.370;2023-02-20T07:46:24;11.50;;;8.47;;
9771;SDS011;4925;52.588;13.370;2023-02-20T07:48:50;10.57;;;8.57;;
9771;SDS011;4925;52.588;13.370;2023-02-20T07:51:17;10.17;;;8.53;;
9771;SDS011;4925;52.588;13.370;2023-02-20T07:53:50;9.33;;;8.03;;
9771;SDS011;4925;52.588;13.370;2023-02-20T07:56:17;9.00;;;7.30;;
9771;SDS011;4925;52.588;13.370;2023-02-20T07:58:45;8.10;;;7.27;;
9771;SDS011;4925;52.588;13.370;2023-02-20T08:01:11;11.07;;;8.03;;
9771;SDS011;4925;52.588;13.370;2023-02-20T08:03:37;8.00;;;7.00;;
9771;SDS011;4925;52.588;13.370;2023-02-20T08:06:02;8.20;;;7.13;;
9771;SDS011;4925;52.588;13.370;2023-02-20T08:08:28;15.07;;;7.87;;
9771;SDS011;4925;52.588;13.370;2023-02-20T08:10:54;9.57;;;7.13;;
9771;SDS011;4925;52.588;13.370;2023-02-20T08:13:20;8.37;;;7.07;;
9771;SDS011;4925;52.588;13.370;2023-02-20T08:15:46;9.67;;;7.10;;
9771;SDS011;4925;52.588;13.370;2023-02-20T08:18:12;7.83;;;6.87;;
9771;SDS011;4925;52.588;13.370;2023-02-20T08:20:38;7.90;;;6.50;;
9771;SDS011;4925;52.588;13.370;2023-02-20T08:23:04;9.23;;;6.77;;
9771;SDS011;4925;52.588;13.370;2023-02-20T08:25:30;7.37;;;6.33;;
9771;SDS011;4925;52.588;13.370;2023-02-20T08:27:56;8.37;;;6.20;;
9771;SDS011;4925;52.588;13.370;2023-02-20T08:30:24;8.90;;;6.80;;
9771;SDS011;4925;52.588;13.370;2023-02-20T08:32:51;6.97;;;6.00;;
9771;SDS011;4925;52.588;13.370;2023-02-20T08:35:18;8.43;;;5.83;;
9771;SDS011;4925;52.588;13.370;2023-02-20T08:37:45;6.67;;;5.77;;
9771;SDS011;4925;52.588;13.370;2023-02-20T08:40:11;7.30;;;5.40;;
9771;SDS011;4925;52.588;13.370;2023-02-20T08:42:37;8.63;;;6.47;;
9771;SDS011;4925;52.588;13.370;2023-02-20T08:45:04;6.37;;;5.53;;
9771;SDS011;4925;52.588;13.370;2023-02-20T08:47:32;7.73;;;6.33;;
9771;SDS011;4925;52.588;13.370;2023-02-20T08:49:58;6.43;;;5.73;;
9771;SDS011;4925;52.588;13.370;2023-02-20T08:52:24;7.33;;;5.47;;
9771;SDS011;4925;52.588;13.370;2023-02-20T08:54:49;7.00;;;5.63;;
9771;SDS011;4925;52.588;13.370;2023-02-20T08:57:15;8.30;;;6.10;;
9771;SDS011;4925;52.588;13.370;2023-02-20T08:59:41;6.80;;;5.47;;
9771;SDS011;4925;52.588;13.370;2023-02-20T09:02:08;7.97;;;6.10;;
9771;SDS011;4925;52.588;13.370;2023-02-20T09:04:43;8.43;;;5.60;;
9771;SDS011;4925;52.588;13.370;2023-02-20T09:07:10;7.93;;;6.00;;
9771;SDS011;4925;52.588;13.370;2023-02-20T09:09:36;6.07;;;5.27;;
9771;SDS011;4925;52.588;13.370;2023-02-20T09:12:02;5.73;;;5.13;;
9771;SDS011;4925;52.588;13.370;2023-02-20T09:14:28;8.00;;;5.53;;
9771;SDS011;4925;52.588;13.370;2023-02-20T09:16:54;6.23;;;5.33;;
9771;SDS011;4925;52.588;13.370;2023-02-20T09:19:19;5.17;;;4.63;;
9771;SDS011;4925;52.588;13.370;2023-02-20T09:21:46;6.80;;;5.10;;
9771;SDS011;4925;52.588;13.370;2023-02-20T09:24:12;7.50;;;5.33;;
9771;SDS011;4925;52.588;13.370;2023-02-20T09:26:38;6.50;;;5.03;;
9771;SDS011;4925;52.588;13.370;2023-02-20T09:29:04;6.83;;;4.67;;
9771;SDS011;4925;52.588;13.370;2023-02-20T09:31:30;6.77;;;5.10;;
9771;SDS011;4925;52.588;13.370;2023-02-20T09:33:55;6.80;;;4.90;;
9771;SDS011;4925;52.588;13.370;2023-02-20T09:36:21;10.90;;;5.07;;
9771;SDS011;4925;52.588;13.370;2023-02-20T09:38:47;7.90;;;4.83;;
9771;SDS011;4925;52.588;13.370;2023-02-20T09:47:16;9.07;;;4.87;;
9771;SDS011;4925;52.588;13.370;2023-02-20T09:49:52;6.03;;;4.27;;
9771;SDS011;4925;52.588;13.370;2023-02-20T09:52:21;4.83;;;4.40;;
9771;SDS011;4925;52.588;13.370;2023-02-20T09:54:54;7.70;;;4.93;;
9771;SDS011;4925;52.588;13.370;2023-02-20T09:57:26;5.90;;;4.57;;
9771;SDS011;4925;52.588;13.370;2023-02-20T09:59:57;10.33;;;5.03;;
9771;SDS011;4925;52.588;13.370;2023-02-20T10:02:43;6.90;;;4.43;;
9771;SDS011;4925;52.588;13.370;2023-02-20T10:05:21;7.53;;;4.70;;
9771;SDS011;4925;52.588;13.370;2023-02-20T10:07:49;5.43;;;4.20;;
9771;SDS011;4925;52.588;13.370;2023-02-20T10:10:17;5.50;;;4.23;;
9771;SDS011;4925;52.588;13.370;2023-02-20T10:12:55;9.67;;;4.17;;
9771;SDS011;4925;52.588;13.370;2023-02-20T10:15:25;4.60;;;4.00;;
9771;SDS011;4925;52.588;13.370;2023-02-20T10:21:11;5.37;;;3.80;;
9771;SDS011;4925;52.588;13.370;2023-02-20T10:26:47;8.53;;;5.07;;
9771;SDS011;4925;52.588;13.370;2023-02-20T10:29:28;5.53;;;4.47;;
9771;SDS011;4925;52.588;13.370;2023-02-20T10:32:04;8.07;;;4.23;;
9771;SDS011;4925;52.588;13.370;2023-02-20T10:34:39;5.23;;;4.20;;
9771;SDS011;4925;52.588;13.370;2023-02-20T10:37:19;7.87;;;4.47;;
9771;SDS011;4925;52.588;13.370;2023-02-20T10:39:58;7.03;;;4.27;;
9771;SDS011;4925;52.588;13.370;2023-02-20T10:42:30;6.20;;;3.90;;
9771;SDS011;4925;52.588;13.370;2023-02-20T10:48:09;4.77;;;4.00;;
9771;SDS011;4925;52.588;13.370;2023-02-20T10:58:38;7.77;;;4.27;;
9771;SDS011;4925;52.588;13.370;2023-02-20T11:01:12;6.17;;;3.93;;
9771;SDS011;4925;52.588;13.370;2023-02-20T11:06:11;5.07;;;3.67;;
9771;SDS011;4925;52.588;13.370;2023-02-20T11:08:40;8.40;;;4.27;;
9771;SDS011;4925;52.588;13.370;2023-02-20T11:11:20;4.87;;;3.83;;
9771;SDS011;4925;52.588;13.370;2023-02-20T11:13:49;5.77;;;3.50;;
9771;SDS011;4925;52.588;13.370;2023-02-20T11:16:51;6.77;;;4.03;;
9771;SDS011;4925;52.588;13.370;2023-02-20T11:19:30;6.00;;;4.33;;
9771;SDS011;4925;52.588;13.370;2023-02-20T11:22:12;4.53;;;3.13;;
9771;SDS011;4925;52.588;13.370;2023-02-20T11:24:42;5.07;;;3.30;;
9771;SDS011;4925;52.588;13.370;2023-02-20T11:27:12;5.33;;;3.63;;
9771;SDS011;4925;52.588;13.370;2023-02-20T11:32:35;4.73;;;3.87;;
9771;SDS011;4925;52.588;13.370;2023-02-20T11:37:43;4.10;;;3.70;;
9771;SDS011;4925;52.588;13.370;2023-02-20T11:43:14;4.00;;;3.60;;
9771;SDS011;4925;52.588;13.370;2023-02-20T11:46:08;4.67;;;3.97;;
9771;SDS011;4925;52.588;13.370;2023-02-20T11:48:38;10.00;;;5.57;;
9771;SDS011;4925;52.588;13.370;2023-02-20T11:54:06;4.53;;;4.13;;
9771;SDS011;4925;52.588;13.370;2023-02-20T11:59:38;4.70;;;4.30;;
9771;SDS011;4925;52.588;13.370;2023-02-20T12:04:39;5.43;;;4.33;;
9771;SDS011;4925;52.588;13.370;2023-02-20T12:07:16;5.97;;;4.20;;
9771;SDS011;4925;52.588;13.370;2023-02-20T12:09:46;6.87;;;4.63;;
9771;SDS011;4925;52.588;13.370;2023-02-20T12:12:15;6.80;;;4.67;;
9771;SDS011;4925;52.588;13.370;2023-02-20T12:14:42;6.67;;;5.07;;
9771;SDS011;4925;52.588;13.370;2023-02-20T12:17:24;6.93;;;5.13;;
9771;SDS011;4925;52.588;13.370;2023-02-20T12:20:10;6.53;;;4.77;;
9771;SDS011;4925;52.588;13.370;2023-02-20T12:22:58;5.87;;;5.00;;
9771;SDS011;4925;52.588;13.370;2023-02-20T12:28:30;8.33;;;5.73;;
9771;SDS011;4925;52.588;13.370;2023-02-20T12:40:05;8.33;;;6.40;;
9771;SDS011;4925;52.588;13.370;2023-02-20T12:47:44;8.17;;;6.00;;
9771;SDS011;4925;52.588;13.370;2023-02-20T12:50:26;9.30;;;6.63;;
9771;SDS011;4925;52.588;13.370;2023-02-20T12:53:35;8.87;;;6.30;;
9771;SDS011;4925;52.588;13.370;2023-02-20T13:01:50;10.77;;;6.53;;
9771;SDS011;4925;52.588;13.370;2023-02-20T13:07:23;12.97;;;7.30;;
9771;SDS011;4925;52.588;13.370;2023-02-20T13:12:35;12.90;;;7.53;;
9771;SDS011;4925;52.588;13.370;2023-02-20T13:15:24;9.77;;;7.80;;
9771;SDS011;4925;52.588;13.370;2023-02-20T13:20:48;12.77;;;8.83;;
9771;SDS011;4925;52.588;13.370;2023-02-20T13:25:45;14.63;;;9.93;;
9771;SDS011;4925;52.588;13.370;2023-02-20T13:30:44;13.47;;;9.10;;
9771;SDS011;4925;52.588;13.370;2023-02-20T13:33:30;11.83;;;10.23;;
9771;SDS011;4925;52.588;13.370;2023-02-20T13:35:56;14.47;;;10.37;;
9771;SDS011;4925;52.588;13.370;2023-02-20T13:38:23;13.60;;;8.90;;
9771;SDS011;4925;52.588;13.370;2023-02-20T13:43:26;17.33;;;10.60;;
9771;SDS011;4925;52.588;13.370;2023-02-20T13:48:38;13.33;;;10.03;;
9771;SDS011;4925;52.588;13.370;2023-02-20T13:53:59;13.80;;;9.63;;
9771;SDS011;4925;52.588;13.370;2023-02-20T13:56:48;14.50;;;10.13;;
9771;SDS011;4925;52.588;13.370;2023-02-20T13:59:23;9.93;;;8.20;;
9771;SDS011;4925;52.588;13.370;2023-02-20T14:04:20;11.70;;;9.07;;
9771;SDS011;4925;52.588;13.370;2023-02-20T14:06:53;14.47;;;9.70;;
9771;SDS011;4925;52.588;13.370;2023-02-20T14:09:23;12.83;;;8.87;;
9771;SDS011;4925;52.588;13.370;2023-02-20T14:12:03;11.50;;;9.10;;
9771;SDS011;4925;52.588;13.370;2023-02-20T14:14:33;11.63;;;8.27;;
9771;SDS011;4925;52.588;13.370;2023-02-20T14:17:06;13.03;;;9.90;;
9771;SDS011;4925;52.588;13.370;2023-02-20T14:19:41;15.00;;;7.83;;
9771;SDS011;4925;52.588;13.370;2023-02-20T14:22:13;11.80;;;9.03;;
9771;SDS011;4925;52.588;13.370;2023-02-20T14:27:43;12.20;;;7.50;;
9771;SDS011;4925;52.588;13.370;2023-02-20T14:30:17;11.43;;;8.30;;
9771;SDS011;4925;52.588;13.370;2023-02-20T14:32:54;18.47;;;10.97;;
9771;SDS011;4925;52.588;13.370;2023-02-20T14:35:33;11.47;;;7.17;;
9771;SDS011;4925;52.588;13.370;2023-02-20T14:41:22;8.83;;;7.13;;
9771;SDS011;4925;52.588;13.370;2023-02-20T14:44:12;9.07;;;6.67;;
9771;SDS011;4925;52.588;13.370;2023-02-20T14:46:42;10.30;;;6.60;;
9771;SDS011;4925;52.588;13.370;2023-02-20T14:49:15;8.70;;;6.77;;
9771;SDS011;4925;52.588;13.370;2023-02-20T14:51:46;10.37;;;6.97;;
9771;SDS011;4925;52.588;13.370;2023-02-20T14:54:19;9.43;;;6.70;;
9771;SDS011;4925;52.588;13.370;2023-02-20T14:56:49;13.27;;;6.47;;
9771;SDS011;4925;52.588;13.370;2023-02-20T14:59:28;8.20;;;6.10;;
9771;SDS011;4925;52.588;13.370;2023-02-20T15:02:18;9.40;;;5.43;;
9771;SDS011;4925;52.588;13.370;2023-02-20T15:05:04;10.17;;;6.03;;
9771;SDS011;4925;52.588;13.370;2023-02-20T15:07:33;6.07;;;4.73;;
9771;SDS011;4925;52.588;13.370;2023-02-20T15:10:00;10.33;;;5.80;;
9771;SDS011;4925;52.588;13.370;2023-02-20T15:12:33;6.13;;;5.23;;
9771;SDS011;4925;52.588;13.370;2023-02-20T15:15:09;7.70;;;5.33;;
9771;SDS011;4925;52.588;13.370;2023-02-20T15:17:40;7.37;;;5.57;;
9771;SDS011;4925;52.588;13.370;2023-02-20T15:22:44;6.20;;;5.07;;
9771;SDS011;4925;52.588;13.370;2023-02-20T15:27:38;7.07;;;4.60;;
9771;SDS011;4925;52.588;13.370;2023-02-20T15:30:15;5.30;;;4.73;;
9771;SDS011;4925;52.588;13.370;2023-02-20T15:32:42;10.33;;;4.90;;
9771;SDS011;4925;52.588;13.370;2023-02-20T15:35:15;6.47;;;4.90;;
9771;SDS011;4925;52.588;13.370;2023-02-20T15:37:44;5.93;;;4.40;;
9771;SDS011;4925;52.588;13.370;2023-02-20T15:40:20;5.90;;;4.57;;
9771;SDS011;4925;52.588;13.370;2023-02-20T15:42:51;5.33;;;4.80;;
9771;SDS011;4925;52.588;13.370;2023-02-20T15:45:29;6.57;;;5.10;;
9771;SDS011;4925;52.588;13.370;2023-02-20T15:47:56;10.27;;;4.50;;
9771;SDS011;4925;52.588;13.370;2023-02-20T15:50:22;5.40;;;4.80;;
9771;SDS011;4925;52.588;13.370;2023-02-20T15:52:50;8.53;;;5.53;;
9771;SDS011;4925;52.588;13.370;2023-02-20T15:55:16;5.17;;;4.67;;
9771;SDS011;4925;52.588;13.370;2023-02-20T15:57:44;6.30;;;4.93;;
9771;SDS011;4925;52.588;13.370;2023-02-20T16:00:22;8.50;;;5.73;;
9771;SDS011;4925;52.588;13.370;2023-02-20T16:02:55;5.23;;;4.70;;
9771;SDS011;4925;52.588;13.370;2023-02-20T16:05:21;5.77;;;4.73;;
9771;SDS011;4925;52.588;13.370;2023-02-20T16:07:49;7.80;;;5.27;;
9771;SDS011;4925;52.588;13.370;2023-02-20T16:10:17;7.30;;;5.47;;
9771;SDS011;4925;52.588;13.370;2023-02-20T16:12:43;6.93;;;4.70;;
9771;SDS011;4925;52.588;13.370;2023-02-20T16:15:14;8.17;;;5.97;;
9771;SDS011;4925;52.588;13.370;2023-02-20T16:17:41;6.13;;;5.53;;
9771;SDS011;4925;52.588;13.370;2023-02-20T16:20:21;6.20;;;5.60;;
9771;SDS011;4925;52.588;13.370;2023-02-20T16:22:51;6.57;;;5.10;;
9771;SDS011;4925;52.588;13.370;2023-02-20T16:25:18;7.37;;;5.50;;
9771;SDS011;4925;52.588;13.370;2023-02-20T16:27:45;10.40;;;5.67;;
9771;SDS011;4925;52.588;13.370;2023-02-20T16:30:18;7.43;;;6.17;;
9771;SDS011;4925;52.588;13.370;2023-02-20T16:32:51;7.93;;;6.50;;
9771;SDS011;4925;52.588;13.370;2023-02-20T16:35:18;9.23;;;6.33;;
9771;SDS011;4925;52.588;13.370;2023-02-20T16:37:46;10.90;;;7.07;;
9771;SDS011;4925;52.588;13.370;2023-02-20T16:40:15;10.60;;;7.07;;
9771;SDS011;4925;52.588;13.370;2023-02-20T16:42:41;10.53;;;7.37;;
9771;SDS011;4925;52.588;13.370;2023-02-20T16:45:14;11.13;;;7.53;;
9771;SDS011;4925;52.588;13.370;2023-02-20T16:47:46;11.23;;;7.70;;
9771;SDS011;4925;52.588;13.370;2023-02-20T16:50:17;9.37;;;6.63;;
9771;SDS011;4925;52.588;13.370;2023-02-20T16:52:47;10.43;;;6.90;;
9771;SDS011;4925;52.588;13.370;2023-02-20T16:55:25;12.70;;;7.40;;
9771;SDS011;4925;52.588;13.370;2023-02-20T16:57:56;11.43;;;6.60;;
9771;SDS011;4925;52.588;13.370;2023-02-20T17:00:56;14.00;;;7.27;;
9771;SDS011;4925;52.588;13.370;2023-02-20T17:03:16;9.83;;;8.07;;
9771;SDS011;4925;52.588;13.370;2023-02-20T17:05:42;9.60;;;6.97;;
9771;SDS011;4925;52.588;13.370;2023-02-20T17:08:07;9.93;;;6.90;;
9771;SDS011;4925;52.588;13.370;2023-02-20T17:10:33;10.53;;;7.07;;
9771;SDS011;4925;52.588;13.370;2023-02-20T17:12:59;10.50;;;7.83;;
9771;SDS011;4925;52.588;13.370;2023-02-20T17:15:25;12.00;;;7.17;;
9771;SDS011;4925;52.588;13.370;2023-02-20T17:17:52;8.97;;;7.47;;
9771;SDS011;4925;52.588;13.370;2023-02-20T17:20:20;8.90;;;7.10;;
9771;SDS011;4925;52.588;13.370;2023-02-20T17:22:47;12.37;;;8.20;;
9771;SDS011;4925;52.588;13.370;2023-02-20T17:25:16;9.43;;;7.80;;
9771;SDS011;4925;52.588;13.370;2023-02-20T17:27:45;9.67;;;7.00;;
9771;SDS011;4925;52.588;13.370;2023-02-20T17:30:12;10.67;;;7.30;;
9771;SDS011;4925;52.588;13.370;2023-02-20T17:32:39;12.73;;;7.83;;